• Join FlightAware (Why Join?)
  • Login
  • US Flag 
06:23PM EDT


 

Airport Tracker/Info


-or-


 

Live Flight TrackerFlight Track Log ✈ UAL4695 ✈ 05-May-2013 ✈ KMEM - KEWR

Flight Track Log - Related Links

Times and Time Zones

All times are in EDT time to prevent confusion due to time zone crossing. See the UAL4695 flight status page for this flight to view local times or setup timezone preferences in your user account.

Time Position Orientation Groundspeed Altitude Reporting Facility
EDT Latitude Longitude Course Direction KTS MPH feet Rate Location/Type
05:09PM 35.0500 -89.9667 33° Northeast 146 168 800  Level KMEM
05:10PM 35.1000 -89.9667 360° North 187 215 2,300 1,680 Climbing KMEM
05:11PM 35.1500 -89.9500 15° North 255 293 4,100 2,100 Climbing KMEM
05:12PM 35.2167 -89.9333 12° North 247 284 6,600 2,280 Climbing KMEM
05:13PM 35.2833 -89.8833 31° Northeast 264 304 8,700 2,160 Climbing KMEM
05:14PM 35.3067 -89.8583 41° Northeast 264 304 9,400 1,800 Climbing Memphis Center
05:15PM 35.3006 -89.7662 33° Northeast  Level FlightAware Approximate
05:15PM 35.3586 -89.8072 39° Northeast 273 314 11,100  Level Memphis Center
05:16PM 35.4208 -89.7506 37° Northeast 286 329 11,600 600 Climbing Memphis Center
05:17PM 35.4936 -89.6761 40° Northeast 323 372 12,300 900 Climbing Memphis Center
05:18PM 35.5703 -89.6017 38° Northeast 346 398 13,400 1,080 Climbing Memphis Center
05:19PM 35.6469 -89.5217 40° Northeast 351 404 14,500 1,200 Climbing Memphis Center
05:20PM 35.7319 -89.4517 34° Northeast 342 394 15,800 1,200 Climbing Memphis Center
05:21PM 35.8150 -89.3894 31° Northeast 342 394 16,900 960 Climbing Memphis Center
05:22PM 35.8978 -89.3269 31° Northeast 342 394 17,800 6,000 Climbing Memphis Center
05:24PM 36.0678 -89.1989 31° Northeast 348 400 35,000 960 Climbing Memphis Center
05:25PM 36.1567 -89.1333 31° Northeast 354 407 20,800 -4,080 Descending Memphis Center
05:27PM 36.3367 -88.9992 31° Northeast 364 419 22,800 960 Climbing Memphis Center
05:28PM 36.4256 -88.9308 32° Northeast 364 419 23,800 960 Climbing Memphis Center
05:29PM 36.5081 -88.8672 32° Northeast 375 432 24,800 960 Climbing Memphis Center
05:30PM 36.5969 -88.8011 31° Northeast 375 432 25,800 960 Climbing Memphis Center
05:31PM 36.6858 -88.7347 31° Northeast 375 432 26,800 960 Climbing Memphis Center
05:32PM 36.7639 -88.6503 41° Northeast 375 432 27,800 960 Climbing Memphis Center
05:33PM 36.8333 -88.5631 45° Northeast 362 417 28,800 900 Climbing Memphis Center
05:34PM 36.9008 -88.4786 45° Northeast 351 404 29,700 900 Climbing Memphis Center
05:35PM 36.9703 -88.3886 46° Northeast 346 398 30,600 780 Climbing Memphis Center
05:36PM 37.0419 -88.3011 44° Northeast 352 405 31,300 660 Climbing Memphis Center
05:37PM 37.1194 -88.1978 47° Northeast 357 411 32,000 720 Climbing Memphis Center
05:38PM 37.1947 -88.1019 45° Northeast 357 411 32,800 780 Climbing Memphis Center
05:39PM 37.2939 -87.9644 48° Northeast 383 441 34,000 660 Climbing Indianapolis Center
05:40PM 37.3689 -87.8669 46° Northeast 383 441 34,600 300 Climbing Indianapolis Center
05:42PM 37.4690 -87.7240 47° Northeast  Level FlightAware Approximate
05:42PM 37.5394 -87.6428 47° Northeast 407 468 35,000  Level Indianapolis Center
05:43PM 37.6219 -87.5350 46° Northeast 421 484 35,000  Level Indianapolis Center
05:44PM 37.7042 -87.4250 47° Northeast 425 489 35,000  Level Indianapolis Center
05:45PM 37.7886 -87.3122 47° Northeast 430 495 35,000  Level Indianapolis Center
05:46PM 37.8711 -87.2036 46° Northeast 429 494 35,000  Level Indianapolis Center
05:47PM 37.9511 -87.0958 47° Northeast 422 486 35,000  Level Indianapolis Center
05:48PM 38.0303 -86.9906 46° Northeast 415 478 35,000  Level Indianapolis Center
05:49PM 38.1081 -86.8861 47° Northeast 412 474 35,000  Level Indianapolis Center
05:50PM 38.2014 -86.7592 47° Northeast 415 478 35,000  Level Indianapolis Center
05:52PM 38.2808 -86.6533 46° Northeast 416 479 35,000  Level Indianapolis Center
05:53PM 38.3589 -86.5450 47° Northeast 417 480 35,000  Level Indianapolis Center
05:54PM 38.4356 -86.4389 47° Northeast 408 470 35,000  Level Indianapolis Center
05:55PM 38.5056 -86.3269 51° Northeast 404 465 35,000  Level Indianapolis Center
05:56PM 38.5756 -86.2161 51° Northeast 400 460 35,000  Level Indianapolis Center
05:58PM 38.7331 -85.9650 51° Northeast 411 473 35,000  Level Indianapolis Center
05:59PM 38.7950 -85.8644 52° Northeast 415 478 35,000 240 Level Indianapolis Center
06:01PM 38.9118 -85.6556 52° Northeast  Level FlightAware Approximate
06:01PM 38.9514 -85.6125 52° Northeast 413 475 35,800  Level Indianapolis Center
06:02PM 39.0211 -85.4961 52° Northeast 414 476 36,200 420 Climbing Indianapolis Center
06:03PM 39.0925 -85.3806 51° Northeast 414 476 36,700 360 Climbing Indianapolis Center
06:04PM 39.1631 -85.2647 52° Northeast 413 475 37,000 120 Climbing Indianapolis Center
06:05PM 39.2492 -85.1211 52° Northeast 421 484 37,000  Level Indianapolis Center
06:06PM 39.3225 -85.0008 52° Northeast 428 493 37,000  Level Indianapolis Center
06:07PM 39.3925 -84.8822 53° Northeast 430 495 37,000  Level Indianapolis Center
06:08PM 39.4664 -84.7617 52° Northeast 426 490 37,000  Level Indianapolis Center
06:09PM 39.5381 -84.6400 53° Northeast 422 486 37,000  Level Indianapolis Center
06:10PM 39.6231 -84.4967 52° Northeast 424 488 37,000  Level Indianapolis Center
06:11PM 39.6953 -84.3739 53° Northeast 424 488 37,000  Level Indianapolis Center
06:12PM 39.7683 -84.2500 52° Northeast 427 491 37,000  Level Indianapolis Center
06:13PM 39.8411 -84.1258 53° Northeast 427 491 37,000  Level Indianapolis Center
06:14PM 39.9144 -84.0014 52° Northeast 429 494 37,000  Level Indianapolis Center
06:15PM 39.9883 -83.8747 53° Northeast 430 495 37,000  Level Indianapolis Center
06:16PM 40.0631 -83.7469 53° Northeast 434 499 37,000  Level Indianapolis Center
06:17PM 40.1381 -83.6164 53° Northeast 441 507 37,000  Level Indianapolis Center
06:18PM 40.2133 -83.4858 53° Northeast 442 509 37,000  Level Indianapolis Center
06:19PM 40.2886 -83.3533 53° Northeast 446 513 37,000  Level Indianapolis Center
06:20PM 40.3761 -83.1992 53° Northeast 447 514 37,000  Level Indianapolis Center
06:21PM 40.4525 -83.0650 53° Northeast 451 519 37,000  Level Indianapolis Center
06:23PM 40.5200 -82.9456 53° Northeast 452 520 37,000  Level Indianapolis Center
06:24PM 40.6078 -82.7883 54° Northeast 452 520 37,000  Level Indianapolis Center
06:25PM 40.6831 -82.6547 53° Northeast 450 518 37,000  Level Indianapolis Center
06:25PM 40.7208 -82.5858 54° Northeast 441 507 37,000  Level Cleveland Center
06:26PM 40.7939 -82.4564 53° Northeast 441 507 37,000  Level Cleveland Center
06:27PM 40.8647 -82.3239 55° Northeast 446 513 37,000  Level Cleveland Center
06:28PM 40.9375 -82.1939 53° Northeast 446 513 37,000  Level Cleveland Center
06:29PM 41.0144 -82.0553 54° Northeast 452 520 37,000  Level Cleveland Center
06:31PM 41.1353 -81.8319 54° Northeast 446 513 37,000  Level Indianapolis Center
06:31PM 41.1550 -81.7992 51° Northeast 457 526 37,000  Level Cleveland Center
06:32PM 41.2336 -81.6544 54° Northeast 452 520 37,000  Level Cleveland Center
06:33PM 41.3078 -81.5203 54° Northeast 452 520 37,000  Level Cleveland Center
06:34PM 41.3797 -81.3800 56° Northeast 447 514 37,000  Level Cleveland Center
06:36PM 41.4670 -81.2098 56° Northeast  Level FlightAware Approximate
06:36PM 41.5208 -81.1156 56° Northeast 441 507 37,000  Level Cleveland Center
06:37PM 41.5842 -80.9800 58° Northeast 441 507 37,000  Level Cleveland Center
06:38PM 41.5908 -80.8136 87° East 428 493 37,000  Level Cleveland Center
06:39PM 41.5889 -80.6525 91° East 428 493 37,000  Level Cleveland Center
06:40PM 41.5847 -80.5056 92° East 438 504 37,000  Level Cleveland Center
06:41PM 41.5844 -80.3222 90° East 444 511 37,000  Level Cleveland Center
06:42PM 41.5819 -80.1583 91° East 444 511 37,000  Level Cleveland Center
06:43PM 41.5769 -79.9975 92° East 437 503 37,000  Level Cleveland Center
06:44PM 41.5719 -79.8531 93° East 431 496 37,000  Level Cleveland Center
06:45PM 41.5689 -79.6894 91° East 431 496 37,000  Level Cleveland Center
06:46PM 41.5633 -79.5286 93° East 436 502 37,000  Level Cleveland Center
06:47PM 41.5617 -79.3678 91° East 436 502 37,000  Level Cleveland Center
06:48PM 41.5556 -79.2014 93° East 441 507 37,000  Level Cleveland Center
06:49PM 41.5494 -79.0378 93° East 441 507 37,000  Level Cleveland Center
06:50PM 41.5469 -78.8742 91° East 441 507 37,000  Level Cleveland Center
06:52PM 41.5372 -78.5842 92° East 441 507 37,000 -240 Level New York Center
06:53PM 41.5311 -78.4228 93° East 441 507 36,500 -1,380 Descending New York Center
06:54PM 41.5247 -78.2611 93° East 441 507 34,400 -2,340 Descending New York Center
06:55PM 41.5186 -78.0942 93° East 446 513 31,800 -1,740 Descending New York Center
06:56PM 41.5078 -77.9294 95° East 446 513 31,000 -420 Descending New York Center
06:57PM 41.4839 -77.7692 101° East 446 513 31,000  Level New York Center
06:58PM 41.4622 -77.6061 100° East 446 513 31,000 -900 Level New York Center
06:59PM 41.4361 -77.4431 102° East 451 519 29,200 -1,860 Descending New York Center
07:00PM 41.4150 -77.2969 101° East 451 519 27,300 -1,440 Descending New York Center
07:01PM 41.3903 -77.1369 102° East 445 512 26,300 -960 Descending New York Center
07:02PM 41.3708 -76.9942 100° East 440 506 25,500 -720 Descending New York Center
07:03PM 41.3428 -76.8117 102° East 434 499 25,000 -300 Descending New York Center
07:04PM 41.3064 -76.6650 108° East 429 494 25,000 -600 Level New York Center
07:05PM 41.2678 -76.5181 109° East 418 481 23,900 -1,320 Descending New York Center
07:06PM 41.2267 -76.3739 111° Southeast 418 481 22,400 -1,560 Descending New York Center
07:08PM 41.1596 -76.1549 108° East  Level FlightAware Approximate
07:08PM 41.1558 -76.1061 108° East 390 449 19,200  Level New York Center
07:09PM 41.1256 -75.9908 109° East 372 428 17,600 -1,680 Descending New York Center
07:10PM 41.0917 -75.8586 109° East 372 428 15,900 -2,100 Descending New York Center
07:11PM 41.0536 -75.7239 110° East 367 422 13,400 -1,500 Descending New York Center
07:12PM 41.0211 -75.6003 109° East 353 406 12,900 -300 Descending New York Center
07:13PM 40.9864 -75.4825 111° Southeast 348 400 12,900 -480 Level New York Center
07:14PM 40.9517 -75.3619 111° Southeast 348 400 12,000 -1,200 Descending New York Center
07:15PM 40.9242 -75.2611 110° East 320 368 10,600 -1,380 Descending New York Center
07:16PM 40.8964 -75.1661 111° Southeast 286 329 9,300 -1,320 Descending New York Center
07:17PM 40.8725 -75.0822 111° Southeast 274 315 8,100 -1,140 Descending New York Center
07:18PM 40.8633 -74.9883 97° East 261 300 7,100 -600 Descending New York Center
07:19PM 40.8839 -74.8825 76° East 260 299 7,000 -120 Descending New York Center
07:20PM 40.8997 -74.7847 78° East 265 305 6,900 -480 Descending New York Center
07:21PM 40.9133 -74.6894 79° East 265 305 6,100 -720 Descending New York Center
07:22PM 40.9183 -74.5964 86° East 265 305 5,500 -600 Descending New York Center
07:23PM 40.9233 -74.5033 86° East 255 293 5,000 -540 Descending New York Center
07:24PM 40.9283 -74.4128 86° East 250 288 4,500 -600 Descending New York Center
07:24PM 40.9333 -74.3667 82° East 239 275 4,100 -360 Descending New York TRACON
07:25PM 40.9333 -74.2833 90° East 239 275 4,000 -240 Descending New York TRACON
07:26PM 40.9000 -74.2000 118° Southeast 241 277 3,700 -540 Descending New York TRACON
07:27PM 40.8833 -74.1167 105° East 235 270 3,000 -600 Descending New York TRACON
07:28PM 40.8333 -74.0833 153° Southeast 254 292 2,600 -720 Descending New York TRACON
07:29PM 40.7667 -74.1167 201° Southwest 234 269 1,600 -960 Descending New York TRACON
07:30PM 40.7333 -74.1333 201° Southwest 144 166 800 -900 Descending New York TRACON